createdAt,value
2018-06-20T00:01:55.544Z,16.33
2018-06-20T00:04:26.251Z,18.27
2018-06-20T00:06:57.021Z,16.50
2018-06-20T00:09:27.044Z,17.03
2018-06-20T00:11:57.679Z,16.53
2018-06-20T00:14:28.290Z,17.10
2018-06-20T00:16:59.156Z,16.13
2018-06-20T00:19:29.968Z,16.30
2018-06-20T00:22:00.891Z,17.63
2018-06-20T00:24:31.548Z,16.37
2018-06-20T00:27:02.089Z,20.70
2018-06-20T00:29:32.693Z,18.53
2018-06-20T00:32:03.568Z,16.50
2018-06-20T00:34:34.187Z,19.13
2018-06-20T00:37:04.066Z,16.77
2018-06-20T00:39:34.662Z,20.27
2018-06-20T00:42:05.702Z,17.23
2018-06-20T00:44:36.112Z,20.67
2018-06-20T00:47:07.033Z,17.27
2018-06-20T00:49:37.671Z,21.00
2018-06-20T00:52:08.289Z,15.87
2018-06-20T00:54:38.578Z,16.30
2018-06-20T00:57:09.298Z,16.73
2018-06-20T00:59:39.910Z,16.10
2018-06-20T01:02:11.513Z,16.97
2018-06-20T01:04:42.222Z,15.33
2018-06-20T01:07:12.014Z,15.47
2018-06-20T01:09:42.564Z,15.07
2018-06-20T01:12:13.282Z,15.90
2018-06-20T01:14:43.596Z,16.20
2018-06-20T01:17:14.389Z,17.23
2018-06-20T01:19:45.367Z,16.80
2018-06-20T01:22:15.996Z,16.27
2018-06-20T01:24:46.767Z,17.37
2018-06-20T01:27:17.521Z,17.00
2018-06-20T01:29:48.198Z,16.00
2018-06-20T01:32:19.409Z,17.30
2018-06-20T01:34:50.344Z,17.07
2018-06-20T01:37:20.654Z,18.00
2018-06-20T01:39:51.460Z,17.37
2018-06-20T01:42:22.266Z,15.97
2018-06-20T01:44:52.974Z,16.70
2018-06-20T01:47:23.784Z,17.40
2018-06-20T01:49:54.544Z,18.47
2018-06-20T01:52:25.423Z,16.90
2018-06-20T01:54:56.076Z,17.93
2018-06-20T01:57:26.743Z,19.87
2018-06-20T01:59:57.386Z,20.00
2018-06-20T02:02:28.608Z,19.27
2018-06-20T02:04:59.388Z,21.33
2018-06-20T02:07:30.384Z,17.83
2018-06-20T02:10:00.827Z,17.93
2018-06-20T02:12:31.043Z,17.53
2018-06-20T02:15:01.567Z,18.03
2018-06-20T02:17:32.035Z,18.80
2018-06-20T02:20:02.708Z,19.47
2018-06-20T02:22:33.303Z,22.23
2018-06-20T02:25:03.894Z,19.47
2018-06-20T02:27:34.553Z,19.40
2018-06-20T02:30:05.387Z,18.83
2018-06-20T02:32:36.196Z,20.03
2018-06-20T02:35:07.873Z,23.17
2018-06-20T02:37:38.546Z,20.20
2018-06-20T02:40:09.105Z,20.20
2018-06-20T02:42:39.523Z,19.83
2018-06-20T02:45:09.786Z,19.07
2018-06-20T02:47:41.725Z,20.73
2018-06-20T02:50:14.020Z,22.40
2018-06-20T02:52:44.848Z,18.53
2018-06-20T02:55:15.714Z,18.07
2018-06-20T02:57:46.400Z,17.03
2018-06-20T03:00:17.781Z,19.63
2018-06-20T03:02:48.406Z,19.13
2018-06-20T03:05:20.438Z,20.37
2018-06-20T03:07:50.899Z,18.53
2018-06-20T03:10:20.875Z,20.97
2018-06-20T03:12:50.730Z,17.53
2018-06-20T03:15:20.519Z,19.83
2018-06-20T03:17:50.332Z,19.00
2018-06-20T03:20:21.384Z,17.43
2018-06-20T03:22:51.290Z,18.57
2018-06-20T03:25:21.157Z,26.03
2018-06-20T03:27:51.016Z,27.43
2018-06-20T03:30:20.853Z,33.60
2018-06-20T03:32:50.561Z,20.70
2018-06-20T03:35:20.350Z,20.53
2018-06-20T03:37:50.428Z,23.57
2018-06-20T03:40:20.268Z,36.90
2018-06-20T03:42:50.067Z,25.27
2018-06-20T03:45:20.582Z,29.50
2018-06-20T03:47:51.414Z,27.07
2018-06-20T03:50:22.317Z,18.03
2018-06-20T03:52:52.776Z,17.93
2018-06-20T03:55:23.607Z,24.63
2018-06-20T03:57:54.253Z,17.23
2018-06-20T04:00:25.069Z,15.53
2018-06-20T04:02:55.533Z,14.50
2018-06-20T04:05:29.871Z,14.73
2018-06-20T04:08:01.099Z,15.47
2018-06-20T04:10:31.809Z,18.17
2018-06-20T04:13:03.374Z,15.40
2018-06-20T04:15:34.874Z,15.97
2018-06-20T04:18:06.126Z,17.60
2018-06-20T04:20:37.278Z,14.80
2018-06-20T04:23:08.523Z,18.47
2018-06-20T04:25:39.288Z,14.93
2018-06-20T04:28:10.137Z,15.80
2018-06-20T04:30:40.834Z,15.13
2018-06-20T04:33:11.978Z,17.00
2018-06-20T04:35:42.036Z,16.27
2018-06-20T04:38:13.496Z,14.40
2018-06-20T04:40:43.948Z,14.90
2018-06-20T04:43:15.493Z,14.97
2018-06-20T04:45:46.163Z,16.73
2018-06-20T04:48:16.815Z,13.47
2018-06-20T04:50:48.025Z,13.03
2018-06-20T04:53:19.183Z,15.10
2018-06-20T04:55:49.354Z,13.10
2018-06-20T04:58:20.514Z,16.20
2018-06-20T05:00:51.504Z,15.23
2018-06-20T05:03:22.891Z,12.27
2018-06-20T05:05:54.310Z,16.13
2018-06-20T05:08:25.312Z,12.30
2018-06-20T05:10:56.101Z,11.37
2018-06-20T05:13:27.298Z,10.60
2018-06-20T05:15:58.500Z,12.07
2018-06-20T05:18:29.419Z,14.53
2018-06-20T05:20:59.592Z,11.67
2018-06-20T05:23:30.471Z,12.43
2018-06-20T05:26:02.103Z,11.00
2018-06-20T05:28:33.182Z,12.47
2018-06-20T05:31:03.808Z,13.00
2018-06-20T05:33:34.331Z,12.23
2018-06-20T05:36:05.463Z,11.63
2018-06-20T05:38:35.873Z,12.77
2018-06-20T05:41:07.146Z,10.97
2018-06-20T05:43:38.786Z,11.93
2018-06-20T05:46:10.079Z,9.00
2018-06-20T05:48:41.445Z,10.80
2018-06-20T05:51:12.327Z,10.27
2018-06-20T05:53:43.114Z,8.83
2018-06-20T05:56:13.795Z,14.27
2018-06-20T05:58:44.523Z,14.90
2018-06-20T06:01:15.065Z,9.60
2018-06-20T06:03:45.703Z,10.10
2018-06-20T06:06:17.234Z,9.43
2018-06-20T06:08:48.413Z,8.50
2018-06-20T06:11:19.058Z,11.70
2018-06-20T06:13:50.012Z,10.60
2018-06-20T06:16:21.051Z,10.30
2018-06-20T06:18:52.175Z,13.13
2018-06-20T06:21:22.975Z,11.37
2018-06-20T06:23:53.764Z,7.33
2018-06-20T06:26:24.237Z,8.40
2018-06-20T06:28:54.160Z,12.87
2018-06-20T06:31:24.177Z,10.50
2018-06-20T06:33:55.168Z,10.57
2018-06-20T06:36:25.595Z,8.33
2018-06-20T06:38:56.621Z,13.23
2018-06-20T06:41:27.371Z,9.17
2018-06-20T06:43:57.902Z,11.73
2018-06-20T06:46:28.401Z,7.90
2018-06-20T06:48:59.245Z,12.17
2018-06-20T06:51:29.945Z,6.90
2018-06-20T06:54:00.230Z,7.97
2018-06-20T06:56:31.559Z,25.23
2018-06-20T06:59:02.619Z,7.47
2018-06-20T07:01:33.543Z,8.47
2018-06-20T07:04:03.681Z,12.20
2018-06-20T07:06:34.434Z,12.87
2018-06-20T07:09:07.270Z,8.63
2018-06-20T07:11:37.864Z,8.45
2018-06-20T07:14:08.727Z,7.70
2018-06-20T07:16:38.967Z,12.60
2018-06-20T07:19:10.045Z,8.40
2018-06-20T07:21:39.871Z,7.40
2018-06-20T07:24:10.765Z,6.37
2018-06-20T07:26:41.554Z,7.83
2018-06-20T07:29:11.828Z,9.90
2018-06-20T07:31:42.755Z,6.83
2018-06-20T07:34:13.427Z,8.70
2018-06-20T07:36:44.238Z,10.37
2018-06-20T07:39:15.181Z,7.80
2018-06-20T07:41:45.627Z,14.57
2018-06-20T07:44:17.269Z,9.00
2018-06-20T07:46:47.937Z,9.57
2018-06-20T07:49:17.955Z,9.40
2018-06-20T07:51:48.794Z,7.53
2018-06-20T07:54:18.956Z,9.47
2018-06-20T07:56:49.547Z,9.30
2018-06-20T07:59:20.304Z,8.97
2018-06-20T08:02:06.435Z,7.27
2018-06-20T08:04:42.547Z,21.67
2018-06-20T08:07:18.563Z,9.57
2018-06-20T08:09:54.798Z,5.53
2018-06-20T08:12:31.191Z,6.57
2018-06-20T08:15:06.870Z,5.33
2018-06-20T08:17:42.492Z,4.77
2018-06-20T08:20:18.604Z,5.40
2018-06-20T08:22:49.857Z,11.60
2018-06-20T08:25:21.160Z,14.30
2018-06-20T08:27:52.077Z,7.77
2018-06-20T08:30:22.710Z,6.30
2018-06-20T08:32:53.445Z,6.90
2018-06-20T08:35:24.316Z,7.47
2018-06-20T08:37:54.585Z,5.80
2018-06-20T08:40:25.189Z,6.73
2018-06-20T08:42:56.286Z,6.10
2018-06-20T08:45:27.122Z,4.80
2018-06-20T08:47:57.851Z,6.10
2018-06-20T08:50:27.637Z,10.23
2018-06-20T08:52:57.534Z,16.13
2018-06-20T08:55:27.437Z,5.63
2018-06-20T08:57:57.272Z,6.63
2018-06-20T09:00:32.138Z,4.60
2018-06-20T09:03:01.991Z,4.05
2018-06-20T09:05:36.997Z,3.42
2018-06-20T09:08:12.031Z,4.77
2018-06-20T09:10:47.038Z,15.87
2018-06-20T09:13:21.963Z,4.90
2018-06-20T09:15:56.923Z,4.00
2018-06-20T09:18:31.955Z,7.50
2018-06-20T09:21:01.795Z,5.90
2018-06-20T09:23:31.643Z,6.37
2018-06-20T09:26:01.422Z,5.17
2018-06-20T09:28:31.271Z,6.78
2018-06-20T09:31:00.983Z,5.72
2018-06-20T09:33:30.838Z,6.92
2018-06-20T09:36:00.633Z,7.90
2018-06-20T09:38:30.534Z,5.20
2018-06-20T09:41:00.315Z,6.08
2018-06-20T09:43:30.229Z,8.00
2018-06-20T09:46:00.103Z,6.35
2018-06-20T09:48:29.975Z,5.60
2018-06-20T09:51:00.350Z,5.10
2018-06-20T09:53:30.223Z,6.87
2018-06-20T09:56:00.118Z,7.60
2018-06-20T09:58:29.915Z,4.60
2018-06-20T10:01:04.923Z,9.55
2018-06-20T10:03:39.869Z,7.60
2018-06-20T10:06:14.815Z,3.70
2018-06-20T10:08:49.875Z,5.37
2018-06-20T10:11:24.949Z,8.90
2018-06-20T10:13:59.844Z,15.43
2018-06-20T10:16:30.874Z,5.50
2018-06-20T10:19:00.828Z,7.80
2018-06-20T10:21:30.772Z,4.37
2018-06-20T10:24:00.597Z,9.05
2018-06-20T10:26:30.545Z,6.37
2018-06-20T10:29:00.613Z,8.18
2018-06-20T10:31:30.726Z,7.12
2018-06-20T10:34:00.542Z,11.08
2018-06-20T10:36:30.719Z,6.33
2018-06-20T10:39:00.630Z,7.35
2018-06-20T10:41:34.976Z,6.78
2018-06-20T10:44:09.019Z,6.40
2018-06-20T10:46:44.076Z,6.20
2018-06-20T10:49:14.710Z,6.08
2018-06-20T10:51:45.284Z,5.42
2018-06-20T10:54:15.224Z,4.80
2018-06-20T10:56:50.411Z,5.62
2018-06-20T10:59:25.348Z,4.40
2018-06-20T11:04:25.368Z,4.58
2018-06-20T11:07:00.454Z,6.12
2018-06-20T11:09:35.441Z,6.72
2018-06-20T11:12:10.546Z,12.80
2018-06-20T11:14:40.375Z,15.53
2018-06-20T11:17:10.233Z,9.03
2018-06-20T11:19:40.084Z,3.98
2018-06-20T11:22:09.950Z,3.98
2018-06-20T11:24:39.821Z,9.00
2018-06-20T11:27:09.625Z,5.53
2018-06-20T11:29:39.472Z,6.97
2018-06-20T11:32:09.275Z,5.40
2018-06-20T11:34:39.177Z,6.00
2018-06-20T11:37:09.030Z,5.33
2018-06-20T11:39:38.926Z,4.85
2018-06-20T11:42:08.674Z,2.70
2018-06-20T11:44:38.714Z,8.23
2018-06-20T11:47:13.710Z,7.85
2018-06-20T11:49:44.234Z,5.75
2018-06-20T11:52:20.661Z,7.72
2018-06-20T11:54:50.653Z,8.35
2018-06-20T11:57:20.815Z,9.25
2018-06-20T11:59:55.881Z,7.45
2018-06-20T12:02:30.741Z,4.75
2018-06-20T12:05:05.643Z,4.55
2018-06-20T12:07:40.491Z,10.88
2018-06-20T12:10:15.364Z,5.70
2018-06-20T12:12:50.377Z,4.65
2018-06-20T12:15:25.305Z,6.60
2018-06-20T12:18:00.309Z,10.98
2018-06-20T12:20:36.019Z,5.60
2018-06-20T12:23:10.927Z,15.38
2018-06-20T12:25:45.892Z,10.90
2018-06-20T12:28:21.050Z,12.95
2018-06-20T12:30:56.045Z,6.03
2018-06-20T12:33:30.902Z,11.63
2018-06-20T12:36:05.997Z,7.80
2018-06-20T12:38:40.842Z,8.25
2018-06-20T12:41:15.924Z,8.83
2018-06-20T12:43:50.869Z,7.55
2018-06-20T12:46:33.199Z,10.50
2018-06-20T12:49:03.038Z,5.03
2018-06-20T12:51:32.878Z,9.13
2018-06-20T12:54:02.666Z,5.20
2018-06-20T12:56:32.694Z,6.92
2018-06-20T12:59:02.701Z,8.60
2018-06-20T13:01:32.547Z,15.28
2018-06-20T13:04:02.516Z,11.60
2018-06-20T13:06:32.479Z,5.00
2018-06-20T13:09:02.377Z,4.80
2018-06-20T13:11:32.406Z,7.60
2018-06-20T13:14:02.277Z,3.80
2018-06-20T13:16:32.217Z,5.60
2018-06-20T13:19:02.822Z,5.90
2018-06-20T13:22:07.790Z,5.75
2018-06-20T13:24:50.488Z,4.45
2018-06-20T13:27:34.652Z,6.97
2018-06-20T13:30:11.776Z,4.45
2018-06-20T13:32:47.233Z,8.40
2018-06-20T13:35:22.197Z,8.00
2018-06-20T13:37:57.060Z,8.05
2018-06-20T13:40:32.227Z,6.37
2018-06-20T13:43:07.418Z,13.53
2018-06-20T13:45:42.370Z,4.85
2018-06-20T13:48:17.328Z,6.75
2018-06-20T13:50:47.252Z,10.05
2018-06-20T13:53:17.100Z,6.90
2018-06-20T13:55:46.975Z,21.17
2018-06-20T13:58:17.105Z,12.70
2018-06-20T14:00:47.044Z,4.83
2018-06-20T14:03:16.891Z,16.67
2018-06-20T14:05:46.831Z,5.03
2018-06-20T14:08:16.681Z,8.05
2018-06-20T14:10:46.595Z,9.38
2018-06-20T14:13:16.394Z,5.03
2018-06-20T14:15:46.260Z,4.22
2018-06-20T14:18:16.179Z,5.35
2018-06-20T14:20:51.299Z,5.33
2018-06-20T14:23:21.164Z,8.78
2018-06-20T14:25:51.162Z,6.58
2018-06-20T14:28:21.020Z,9.25
2018-06-20T14:30:55.823Z,9.80
2018-06-20T14:33:30.720Z,5.17
2018-06-20T14:36:05.703Z,9.75
2018-06-20T14:38:40.614Z,5.97
2018-06-20T14:41:15.163Z,5.87
2018-06-20T14:43:49.958Z,6.72
2018-06-20T14:46:21.867Z,10.43
2018-06-20T14:48:51.807Z,9.75
2018-06-20T14:51:21.833Z,5.83
2018-06-20T14:53:51.658Z,7.40
2018-06-20T14:56:22.018Z,6.65
2018-06-20T14:58:51.812Z,6.00
2018-06-20T15:01:21.659Z,5.80
2018-06-20T15:03:51.555Z,7.65
2018-06-20T15:06:21.332Z,6.40
2018-06-20T15:08:51.158Z,5.70
2018-06-20T15:11:20.971Z,6.58
2018-06-20T15:13:50.793Z,9.25
2018-06-20T15:16:25.648Z,7.78
2018-06-20T15:18:55.608Z,4.83
2018-06-20T15:21:25.346Z,6.47
2018-06-20T15:23:55.291Z,6.15
2018-06-20T15:26:30.215Z,6.45
2018-06-20T15:29:05.255Z,7.20
2018-06-20T15:31:40.242Z,7.55
2018-06-20T15:34:15.240Z,5.33
2018-06-20T15:36:50.459Z,6.25
2018-06-20T15:39:20.656Z,6.67
2018-06-20T15:41:57.807Z,5.83
2018-06-20T15:44:32.500Z,10.18
2018-06-20T15:47:03.989Z,6.12
2018-06-20T15:49:34.136Z,5.60
2018-06-20T15:52:04.102Z,10.45
2018-06-20T15:54:34.066Z,7.90
2018-06-20T15:57:03.894Z,5.67
2018-06-20T15:59:33.716Z,7.53
2018-06-20T16:02:03.577Z,6.00
2018-06-20T16:04:33.360Z,7.08
2018-06-20T16:07:03.428Z,8.17
2018-06-20T16:09:38.338Z,9.75
2018-06-20T16:12:08.157Z,6.12
2018-06-20T16:14:37.904Z,8.00
2018-06-20T16:17:07.770Z,7.95
2018-06-20T16:20:44.565Z,10.93
2018-06-20T16:23:22.396Z,6.00
2018-06-20T16:25:59.645Z,8.73
2018-06-20T16:28:34.756Z,7.10
2018-06-20T16:31:04.588Z,9.80
2018-06-20T16:33:34.341Z,7.58
2018-06-20T16:36:04.238Z,10.10
2018-06-20T16:38:34.081Z,9.03
2018-06-20T16:41:03.976Z,11.70
2018-06-20T16:43:33.893Z,8.30
2018-06-20T16:46:03.737Z,7.67
2018-06-20T16:48:33.513Z,10.53
2018-06-20T16:51:03.332Z,9.60
2018-06-20T16:53:33.161Z,8.43
2018-06-20T16:56:02.973Z,8.17
2018-06-20T16:58:33.021Z,6.83
2018-06-20T17:01:08.099Z,7.93
2018-06-20T17:03:37.978Z,9.30
2018-06-20T17:06:07.882Z,6.67
2018-06-20T17:08:37.775Z,10.67
2018-06-20T17:11:07.646Z,9.57
2018-06-20T17:14:41.152Z,9.13
2018-06-20T17:17:16.110Z,5.80
2018-06-20T17:19:51.060Z,5.40
2018-06-20T17:22:25.903Z,19.00
2018-06-20T17:25:01.093Z,6.33
2018-06-20T17:27:30.984Z,9.60
2018-06-20T17:30:00.880Z,6.93
2018-06-20T17:32:30.739Z,10.07
2018-06-20T17:35:00.661Z,7.50
2018-06-20T17:37:30.737Z,8.23
2018-06-20T17:40:00.609Z,10.10
2018-06-20T17:42:30.430Z,8.47
2018-06-20T17:45:00.293Z,8.73
2018-06-20T17:47:30.069Z,8.70
2018-06-20T17:49:59.814Z,5.60
2018-06-20T17:52:29.690Z,5.67
2018-06-20T17:54:59.409Z,8.63
2018-06-20T17:57:29.294Z,8.00
2018-06-20T17:59:59.231Z,9.07
2018-06-20T18:02:29.239Z,8.07
2018-06-20T18:05:04.112Z,6.20
2018-06-20T18:07:38.987Z,11.20
2018-06-20T18:10:13.939Z,16.37
2018-06-20T18:12:48.945Z,10.07
2018-06-20T18:15:23.893Z,7.40
2018-06-20T18:17:53.899Z,10.57
2018-06-20T18:20:23.810Z,8.37
2018-06-20T18:22:53.543Z,9.03
2018-06-20T18:25:23.561Z,11.13
2018-06-20T18:27:53.541Z,7.80
2018-06-20T18:30:23.320Z,13.73
2018-06-20T18:32:53.173Z,16.27
2018-06-20T18:35:23.108Z,19.37
2018-06-20T18:37:53.835Z,19.67
2018-06-20T18:40:24.204Z,18.37
2018-06-20T18:42:54.051Z,17.00
2018-06-20T18:45:24.330Z,14.10
2018-06-20T18:47:59.382Z,15.17
2018-06-20T18:50:29.206Z,14.47
2018-06-20T18:52:59.026Z,11.93
2018-06-20T18:55:28.785Z,10.13
2018-06-20T18:58:03.857Z,10.00
2018-06-20T19:00:38.720Z,13.43
2018-06-20T19:03:13.774Z,8.50
2018-06-20T19:05:48.639Z,8.87
2018-06-20T19:09:21.333Z,10.47
2018-06-20T19:11:51.168Z,7.73
2018-06-20T19:14:21.516Z,10.33
2018-06-20T19:16:51.433Z,9.07
2018-06-20T19:19:21.299Z,10.83
2018-06-20T19:21:51.208Z,8.73
2018-06-20T19:24:21.033Z,14.43
2018-06-20T19:26:50.811Z,7.20
2018-06-20T19:29:20.582Z,10.10
2018-06-20T19:31:50.380Z,7.10
2018-06-20T19:34:20.171Z,8.53
2018-06-20T19:36:50.043Z,9.73
2018-06-20T19:39:24.975Z,9.90
2018-06-20T19:41:54.872Z,9.23
2018-06-20T19:44:29.836Z,9.83
2018-06-20T19:46:59.626Z,17.03
2018-06-20T19:49:29.418Z,9.60
2018-06-20T19:51:59.229Z,7.30
2018-06-20T19:54:29.032Z,8.43
2018-06-20T19:56:58.966Z,9.20
2018-06-20T19:59:28.707Z,9.87
2018-06-20T20:01:58.460Z,9.27
2018-06-20T20:04:28.283Z,7.57
2018-06-20T20:06:58.058Z,7.93
2018-06-20T20:09:27.820Z,9.03
2018-06-20T20:11:57.542Z,8.43
2018-06-20T20:14:27.327Z,7.13
2018-06-20T20:16:57.231Z,7.87
2018-06-20T20:19:27.016Z,11.40
2018-06-20T20:21:56.918Z,9.47
2018-06-20T20:24:26.863Z,7.63
2018-06-20T20:26:56.924Z,7.77
2018-06-20T20:29:26.746Z,9.83
2018-06-20T20:31:56.577Z,7.60
2018-06-20T20:34:26.345Z,9.80
2018-06-20T20:36:57.604Z,7.83
2018-06-20T20:39:27.465Z,10.50
2018-06-20T20:41:57.311Z,44.83
2018-06-20T20:44:27.180Z,24.93
2018-06-20T20:46:57.097Z,9.30
2018-06-20T20:49:27.100Z,7.97
2018-06-20T20:51:56.954Z,10.70
2018-06-20T20:54:26.823Z,9.67
2018-06-20T20:56:56.654Z,8.20
2018-06-20T20:59:26.471Z,9.00
2018-06-20T21:01:56.302Z,8.33
2018-06-20T21:04:26.219Z,12.17
2018-06-20T21:06:56.155Z,12.20
2018-06-20T21:09:26.249Z,13.40
2018-06-20T21:11:56.104Z,8.50
2018-06-20T21:14:25.901Z,9.20
2018-06-20T21:16:55.706Z,12.07
2018-06-20T21:19:25.410Z,8.10
2018-06-20T21:21:55.176Z,9.13
2018-06-20T21:24:26.763Z,7.87
2018-06-20T21:26:56.551Z,10.60
2018-06-20T21:29:26.501Z,12.53
2018-06-20T21:31:56.335Z,9.30
2018-06-20T21:34:26.090Z,10.33
2018-06-20T21:36:55.992Z,11.53
2018-06-20T21:39:25.919Z,9.20
2018-06-20T21:41:55.804Z,10.03
2018-06-20T21:44:25.670Z,9.90
2018-06-20T21:46:55.625Z,9.60
2018-06-20T21:49:25.440Z,8.27
2018-06-20T21:51:55.176Z,8.17
2018-06-20T21:54:25.021Z,11.77
2018-06-20T21:56:54.932Z,12.93
2018-06-20T21:59:24.819Z,7.70
2018-06-20T22:01:54.695Z,10.00
2018-06-20T22:04:24.571Z,8.27
2018-06-20T22:06:54.408Z,7.53
2018-06-20T22:09:24.927Z,10.17
2018-06-20T22:11:55.090Z,7.63
2018-06-20T22:14:25.436Z,7.70
2018-06-20T22:16:55.950Z,9.20
2018-06-20T22:19:26.466Z,8.77
2018-06-20T22:21:56.876Z,9.80
2018-06-20T22:24:27.501Z,9.67
2018-06-20T22:26:58.054Z,10.37
2018-06-20T22:29:28.349Z,10.30
2018-06-20T22:31:58.951Z,11.23
2018-06-20T22:34:29.410Z,9.23
2018-06-20T22:36:59.988Z,9.43
2018-06-20T22:39:30.464Z,10.10
2018-06-20T22:42:01.021Z,9.20
2018-06-20T22:44:31.330Z,10.07
2018-06-20T22:47:01.930Z,9.57
2018-06-20T22:49:32.640Z,14.37
2018-06-20T22:52:03.227Z,11.47
2018-06-20T22:54:34.480Z,10.80
2018-06-20T22:57:05.205Z,12.07
2018-06-20T22:59:35.210Z,13.40
2018-06-20T23:02:06.098Z,10.73
2018-06-20T23:04:36.084Z,12.23
2018-06-20T23:07:06.830Z,13.20
2018-06-20T23:09:37.545Z,11.40
2018-06-20T23:12:08.655Z,10.13
2018-06-20T23:14:39.502Z,10.93
2018-06-20T23:17:10.659Z,11.33
2018-06-20T23:19:41.354Z,10.67
2018-06-20T23:22:12.368Z,10.97
2018-06-20T23:24:43.168Z,12.57
2018-06-20T23:27:13.910Z,10.33
2018-06-20T23:29:44.785Z,11.83
2018-06-20T23:32:15.406Z,11.53
2018-06-20T23:34:46.144Z,14.73
2018-06-20T23:37:16.911Z,13.30
2018-06-20T23:39:47.807Z,12.47
2018-06-20T23:42:18.581Z,11.93
2018-06-20T23:44:49.379Z,12.90
2018-06-20T23:47:20.028Z,14.33
2018-06-20T23:49:50.838Z,14.00
2018-06-20T23:52:21.616Z,15.20
2018-06-20T23:54:51.459Z,13.47
2018-06-20T23:57:22.044Z,13.07
2018-06-20T23:59:53.040Z,12.50
